Arapahoe, North Carolina
Current Conditions -  °F | °C
As of 7:54 AM on Wednesday 22 Oct 2014 (Local Time) from KNKT Reporting Station
Clear Clear  
Wind Chill: 52°   Ceiling: Unl
Heat Index: 52°   Visibility: 10mi
Dew Point: 45°   Wind: 9mph
Humidity: 77%   Direction: 300°WNW
Pressure: 29.92"   Gusts: NA
Location:  35.03°N, 76.83°W
Report Text: KNKT 221154Z 30008KT 10SM CLR 11/07 A2992 RMK AO2 SLP129 T01110072 10167 20111 53018 $
Loading
Personal Weather Stations






























Interactive Weather Map New forecast layout! Learn more

10-Day Weather Forecast

Advertisements
Track Severe Weather on mobile